sensor_id;sensor_type;location;lat;lon;timestamp;P1;durP1;ratioP1;P2;durP2;ratioP2
72797;SDS011;61084;55.816;37.036;2022-11-03T00:01:53;3.60;;;0.50;;
72797;SDS011;61084;55.816;37.036;2022-11-03T00:04:20;0.50;;;0.40;;
72797;SDS011;61084;55.816;37.036;2022-11-03T00:06:50;0.28;;;0.25;;
72797;SDS011;61084;55.816;37.036;2022-11-03T00:09:18;0.55;;;0.40;;
72797;SDS011;61084;55.816;37.036;2022-11-03T00:14:12;0.30;;;0.30;;
72797;SDS011;61084;55.816;37.036;2022-11-03T00:16:41;2.22;;;1.10;;
72797;SDS011;61084;55.816;37.036;2022-11-03T00:19:08;1.80;;;0.77;;
72797;SDS011;61084;55.816;37.036;2022-11-03T00:24:01;1.15;;;0.60;;
72797;SDS011;61084;55.816;37.036;2022-11-03T00:26:28;0.98;;;0.60;;
72797;SDS011;61084;55.816;37.036;2022-11-03T00:28:56;0.52;;;0.30;;
72797;SDS011;61084;55.816;37.036;2022-11-03T00:31:30;1.58;;;0.30;;
72797;SDS011;61084;55.816;37.036;2022-11-03T00:33:58;0.28;;;0.28;;
72797;SDS011;61084;55.816;37.036;2022-11-03T00:36:28;0.47;;;0.47;;
72797;SDS011;61084;55.816;37.036;2022-11-03T00:38:59;0.90;;;0.70;;
72797;SDS011;61084;55.816;37.036;2022-11-03T00:41:25;0.80;;;0.60;;
72797;SDS011;61084;55.816;37.036;2022-11-03T00:43:51;0.38;;;0.35;;
72797;SDS011;61084;55.816;37.036;2022-11-03T00:46:18;0.70;;;0.38;;
72797;SDS011;61084;55.816;37.036;2022-11-03T00:48:45;1.20;;;0.70;;
72797;SDS011;61084;55.816;37.036;2022-11-03T00:51:12;1.08;;;0.60;;
72797;SDS011;61084;55.816;37.036;2022-11-03T00:53:40;0.63;;;0.30;;
72797;SDS011;61084;55.816;37.036;2022-11-03T00:56:08;0.40;;;0.20;;
72797;SDS011;61084;55.816;37.036;2022-11-03T00:58:36;0.55;;;0.30;;
72797;SDS011;61084;55.816;37.036;2022-11-03T01:01:05;0.40;;;0.30;;
72797;SDS011;61084;55.816;37.036;2022-11-03T01:03:32;4.05;;;1.48;;
72797;SDS011;61084;55.816;37.036;2022-11-03T01:06:00;0.50;;;0.30;;
72797;SDS011;61084;55.816;37.036;2022-11-03T01:08:45;0.63;;;0.28;;
72797;SDS011;61084;55.816;37.036;2022-11-03T01:11:11;0.82;;;0.40;;
72797;SDS011;61084;55.816;37.036;2022-11-03T01:13:57;0.40;;;0.20;;
72797;SDS011;61084;55.816;37.036;2022-11-03T01:16:24;0.43;;;0.32;;
72797;SDS011;61084;55.816;37.036;2022-11-03T01:18:50;1.08;;;0.70;;
72797;SDS011;61084;55.816;37.036;2022-11-03T01:21:16;3.05;;;1.00;;
72797;SDS011;61084;55.816;37.036;2022-11-03T01:23:43;1.25;;;0.50;;
72797;SDS011;61084;55.816;37.036;2022-11-03T01:26:09;1.98;;;0.93;;
72797;SDS011;61084;55.816;37.036;2022-11-03T01:28:36;1.55;;;0.60;;
72797;SDS011;61084;55.816;37.036;2022-11-03T01:31:25;0.82;;;0.40;;
72797;SDS011;61084;55.816;37.036;2022-11-03T01:33:51;3.72;;;1.50;;
72797;SDS011;61084;55.816;37.036;2022-11-03T01:36:19;2.17;;;0.70;;
72797;SDS011;61084;55.816;37.036;2022-11-03T01:38:45;0.28;;;0.20;;
72797;SDS011;61084;55.816;37.036;2022-11-03T01:41:12;2.13;;;0.80;;
72797;SDS011;61084;55.816;37.036;2022-11-03T01:43:40;0.52;;;0.43;;
72797;SDS011;61084;55.816;37.036;2022-11-03T01:48:35;0.65;;;0.30;;
72797;SDS011;61084;55.816;37.036;2022-11-03T01:51:05;0.80;;;0.20;;
72797;SDS011;61084;55.816;37.036;2022-11-03T01:53:32;0.40;;;0.30;;
72797;SDS011;61084;55.816;37.036;2022-11-03T01:58:28;0.73;;;0.40;;
72797;SDS011;61084;55.816;37.036;2022-11-03T02:00:56;0.38;;;0.30;;
72797;SDS011;61084;55.816;37.036;2022-11-03T02:03:24;2.47;;;0.70;;
72797;SDS011;61084;55.816;37.036;2022-11-03T02:05:52;4.22;;;1.60;;
72797;SDS011;61084;55.816;37.036;2022-11-03T02:10:50;0.85;;;0.40;;
72797;SDS011;61084;55.816;37.036;2022-11-03T02:13:23;1.75;;;0.73;;
72797;SDS011;61084;55.816;37.036;2022-11-03T02:16:11;0.82;;;0.40;;
72797;SDS011;61084;55.816;37.036;2022-11-03T02:18:37;1.67;;;0.50;;
72797;SDS011;61084;55.816;37.036;2022-11-03T02:27:16;2.50;;;0.70;;
72797;SDS011;61084;55.816;37.036;2022-11-03T02:29:43;1.48;;;0.60;;
72797;SDS011;61084;55.816;37.036;2022-11-03T02:32:32;0.90;;;0.50;;
72797;SDS011;61084;55.816;37.036;2022-11-03T02:37:50;0.98;;;0.52;;
72797;SDS011;61084;55.816;37.036;2022-11-03T02:40:33;2.60;;;0.88;;
72797;SDS011;61084;55.816;37.036;2022-11-03T02:43:03;0.38;;;0.30;;
72797;SDS011;61084;55.816;37.036;2022-11-03T02:45:30;0.35;;;0.35;;
72797;SDS011;61084;55.816;37.036;2022-11-03T02:47:57;0.95;;;0.65;;
72797;SDS011;61084;55.816;37.036;2022-11-03T02:50:26;1.23;;;0.40;;
72797;SDS011;61084;55.816;37.036;2022-11-03T02:52:53;4.85;;;1.88;;
72797;SDS011;61084;55.816;37.036;2022-11-03T03:03:53;0.30;;;0.20;;
72797;SDS011;61084;55.816;37.036;2022-11-03T03:06:32;0.57;;;0.35;;
72797;SDS011;61084;55.816;37.036;2022-11-03T03:09:03;1.15;;;0.55;;
72797;SDS011;61084;55.816;37.036;2022-11-03T03:11:34;0.95;;;0.43;;
72797;SDS011;61084;55.816;37.036;2022-11-03T03:20:03;0.55;;;0.30;;
72797;SDS011;61084;55.816;37.036;2022-11-03T03:25:21;1.40;;;0.70;;
72797;SDS011;61084;55.816;37.036;2022-11-03T03:28:09;0.30;;;0.30;;
72797;SDS011;61084;55.816;37.036;2022-11-03T03:30:38;0.82;;;0.45;;
72797;SDS011;61084;55.816;37.036;2022-11-03T03:33:06;1.90;;;0.40;;
72797;SDS011;61084;55.816;37.036;2022-11-03T03:38:03;0.85;;;0.35;;
72797;SDS011;61084;55.816;37.036;2022-11-03T03:40:36;0.47;;;0.40;;
72797;SDS011;61084;55.816;37.036;2022-11-03T03:43:07;0.73;;;0.40;;
72797;SDS011;61084;55.816;37.036;2022-11-03T03:45:34;0.90;;;0.50;;
72797;SDS011;61084;55.816;37.036;2022-11-03T03:48:02;1.45;;;0.70;;
72797;SDS011;61084;55.816;37.036;2022-11-03T03:50:32;0.30;;;0.30;;
72797;SDS011;61084;55.816;37.036;2022-11-03T03:53:02;0.88;;;0.40;;
72797;SDS011;61084;55.816;37.036;2022-11-03T03:55:33;0.45;;;0.45;;
72797;SDS011;61084;55.816;37.036;2022-11-03T03:58:04;0.93;;;0.50;;
72797;SDS011;61084;55.816;37.036;2022-11-03T04:00:30;0.40;;;0.40;;
72797;SDS011;61084;55.816;37.036;2022-11-03T04:02:57;0.47;;;0.40;;
72797;SDS011;61084;55.816;37.036;2022-11-03T04:05:23;1.23;;;0.60;;
72797;SDS011;61084;55.816;37.036;2022-11-03T04:07:50;1.63;;;0.60;;
72797;SDS011;61084;55.816;37.036;2022-11-03T04:10:16;0.60;;;0.40;;
72797;SDS011;61084;55.816;37.036;2022-11-03T04:12:44;0.50;;;0.40;;
72797;SDS011;61084;55.816;37.036;2022-11-03T04:15:29;0.68;;;0.50;;
72797;SDS011;61084;55.816;37.036;2022-11-03T04:18:14;3.65;;;0.75;;
72797;SDS011;61084;55.816;37.036;2022-11-03T04:20:59;1.15;;;0.75;;
72797;SDS011;61084;55.816;37.036;2022-11-03T04:23:44;1.50;;;1.05;;
72797;SDS011;61084;55.816;37.036;2022-11-03T04:26:13;1.85;;;0.95;;
72797;SDS011;61084;55.816;37.036;2022-11-03T04:28:40;0.75;;;0.70;;
72797;SDS011;61084;55.816;37.036;2022-11-03T04:31:14;0.82;;;0.70;;
72797;SDS011;61084;55.816;37.036;2022-11-03T04:33:41;0.60;;;0.60;;
72797;SDS011;61084;55.816;37.036;2022-11-03T04:36:09;1.55;;;0.77;;
72797;SDS011;61084;55.816;37.036;2022-11-03T04:38:39;0.82;;;0.70;;
72797;SDS011;61084;55.816;37.036;2022-11-03T04:41:06;0.68;;;0.57;;
72797;SDS011;61084;55.816;37.036;2022-11-03T04:43:39;0.88;;;0.60;;
72797;SDS011;61084;55.816;37.036;2022-11-03T04:46:04;1.10;;;0.82;;
72797;SDS011;61084;55.816;37.036;2022-11-03T04:48:35;1.75;;;0.70;;
72797;SDS011;61084;55.816;37.036;2022-11-03T04:51:04;1.83;;;0.88;;
72797;SDS011;61084;55.816;37.036;2022-11-03T04:53:38;1.55;;;0.63;;
72797;SDS011;61084;55.816;37.036;2022-11-03T04:56:12;0.32;;;0.32;;
72797;SDS011;61084;55.816;37.036;2022-11-03T04:58:41;1.00;;;0.60;;
72797;SDS011;61084;55.816;37.036;2022-11-03T05:01:09;1.02;;;0.70;;
72797;SDS011;61084;55.816;37.036;2022-11-03T05:03:37;0.43;;;0.43;;
72797;SDS011;61084;55.816;37.036;2022-11-03T05:06:10;0.88;;;0.60;;
72797;SDS011;61084;55.816;37.036;2022-11-03T05:08:39;0.73;;;0.50;;
72797;SDS011;61084;55.816;37.036;2022-11-03T05:11:14;1.52;;;0.90;;
72797;SDS011;61084;55.816;37.036;2022-11-03T05:13:45;0.95;;;0.57;;
72797;SDS011;61084;55.816;37.036;2022-11-03T05:16:11;0.45;;;0.40;;
72797;SDS011;61084;55.816;37.036;2022-11-03T05:18:37;0.80;;;0.55;;
72797;SDS011;61084;55.816;37.036;2022-11-03T05:21:07;1.00;;;0.60;;
72797;SDS011;61084;55.816;37.036;2022-11-03T05:23:39;1.15;;;0.50;;
72797;SDS011;61084;55.816;37.036;2022-11-03T05:26:17;0.80;;;0.50;;
72797;SDS011;61084;55.816;37.036;2022-11-03T05:28:54;0.63;;;0.40;;
72797;SDS011;61084;55.816;37.036;2022-11-03T05:31:25;1.10;;;0.50;;
72797;SDS011;61084;55.816;37.036;2022-11-03T05:34:05;0.60;;;0.50;;
72797;SDS011;61084;55.816;37.036;2022-11-03T05:36:51;0.75;;;0.40;;
72797;SDS011;61084;55.816;37.036;2022-11-03T05:41:45;1.90;;;0.98;;
72797;SDS011;61084;55.816;37.036;2022-11-03T05:46:57;1.13;;;0.73;;
72797;SDS011;61084;55.816;37.036;2022-11-03T05:49:26;1.10;;;0.70;;
72797;SDS011;61084;55.816;37.036;2022-11-03T05:51:51;1.13;;;0.70;;
72797;SDS011;61084;55.816;37.036;2022-11-03T05:54:28;1.10;;;0.75;;
72797;SDS011;61084;55.816;37.036;2022-11-03T05:56:59;0.95;;;0.65;;
72797;SDS011;61084;55.816;37.036;2022-11-03T05:59:26;1.35;;;0.85;;
72797;SDS011;61084;55.816;37.036;2022-11-03T06:01:54;1.52;;;1.02;;
72797;SDS011;61084;55.816;37.036;2022-11-03T06:04:25;1.42;;;0.70;;
72797;SDS011;61084;55.816;37.036;2022-11-03T06:07:02;0.70;;;0.65;;
72797;SDS011;61084;55.816;37.036;2022-11-03T06:09:35;2.35;;;1.10;;
72797;SDS011;61084;55.816;37.036;2022-11-03T06:12:01;1.63;;;1.15;;
72797;SDS011;61084;55.816;37.036;2022-11-03T06:14:31;1.95;;;0.85;;
72797;SDS011;61084;55.816;37.036;2022-11-03T06:17:01;3.60;;;1.17;;
72797;SDS011;61084;55.816;37.036;2022-11-03T06:19:33;1.52;;;1.08;;
72797;SDS011;61084;55.816;37.036;2022-11-03T06:22:09;1.10;;;0.80;;
72797;SDS011;61084;55.816;37.036;2022-11-03T06:24:39;1.25;;;1.00;;
72797;SDS011;61084;55.816;37.036;2022-11-03T06:27:07;2.08;;;1.25;;
72797;SDS011;61084;55.816;37.036;2022-11-03T06:29:37;1.65;;;1.08;;
72797;SDS011;61084;55.816;37.036;2022-11-03T06:32:03;1.48;;;0.80;;
72797;SDS011;61084;55.816;37.036;2022-11-03T06:34:40;1.73;;;1.00;;
72797;SDS011;61084;55.816;37.036;2022-11-03T06:37:20;1.67;;;0.98;;
72797;SDS011;61084;55.816;37.036;2022-11-03T06:39:48;1.85;;;1.25;;
72797;SDS011;61084;55.816;37.036;2022-11-03T06:42:15;1.65;;;1.30;;
72797;SDS011;61084;55.816;37.036;2022-11-03T06:44:46;1.75;;;0.90;;
72797;SDS011;61084;55.816;37.036;2022-11-03T06:47:21;0.77;;;0.70;;
72797;SDS011;61084;55.816;37.036;2022-11-03T06:50:01;0.98;;;0.70;;
72797;SDS011;61084;55.816;37.036;2022-11-03T06:52:44;2.05;;;1.23;;
72797;SDS011;61084;55.816;37.036;2022-11-03T06:58:03;0.60;;;0.60;;
72797;SDS011;61084;55.816;37.036;2022-11-03T07:00:50;1.10;;;0.70;;
72797;SDS011;61084;55.816;37.036;2022-11-03T07:03:27;1.73;;;1.08;;
72797;SDS011;61084;55.816;37.036;2022-11-03T07:06:01;1.10;;;0.80;;
72797;SDS011;61084;55.816;37.036;2022-11-03T07:08:38;1.40;;;0.85;;
72797;SDS011;61084;55.816;37.036;2022-11-03T07:11:10;2.00;;;1.00;;
72797;SDS011;61084;55.816;37.036;2022-11-03T07:13:44;0.95;;;0.68;;
72797;SDS011;61084;55.816;37.036;2022-11-03T07:16:12;0.95;;;0.60;;
72797;SDS011;61084;55.816;37.036;2022-11-03T07:18:43;0.95;;;0.70;;
72797;SDS011;61084;55.816;37.036;2022-11-03T07:21:23;0.93;;;0.80;;
72797;SDS011;61084;55.816;37.036;2022-11-03T07:23:55;2.25;;;0.90;;
72797;SDS011;61084;55.816;37.036;2022-11-03T07:26:25;1.10;;;0.73;;
72797;SDS011;61084;55.816;37.036;2022-11-03T07:28:51;1.80;;;0.82;;
72797;SDS011;61084;55.816;37.036;2022-11-03T07:31:19;1.10;;;0.70;;
72797;SDS011;61084;55.816;37.036;2022-11-03T07:33:47;2.05;;;1.00;;
72797;SDS011;61084;55.816;37.036;2022-11-03T07:36:17;1.10;;;0.68;;
72797;SDS011;61084;55.816;37.036;2022-11-03T07:38:47;0.95;;;0.70;;
72797;SDS011;61084;55.816;37.036;2022-11-03T07:41:19;0.85;;;0.60;;
72797;SDS011;61084;55.816;37.036;2022-11-03T07:44:07;1.33;;;0.90;;
72797;SDS011;61084;55.816;37.036;2022-11-03T07:46:40;1.08;;;0.82;;
72797;SDS011;61084;55.816;37.036;2022-11-03T07:51:36;1.20;;;0.80;;
72797;SDS011;61084;55.816;37.036;2022-11-03T07:56:34;0.98;;;0.50;;
72797;SDS011;61084;55.816;37.036;2022-11-03T08:01:41;1.35;;;0.80;;
72797;SDS011;61084;55.816;37.036;2022-11-03T08:04:16;1.45;;;0.70;;
72797;SDS011;61084;55.816;37.036;2022-11-03T08:06:44;0.70;;;0.60;;
72797;SDS011;61084;55.816;37.036;2022-11-03T08:09:10;0.43;;;0.40;;
72797;SDS011;61084;55.816;37.036;2022-11-03T08:11:36;1.35;;;0.80;;
72797;SDS011;61084;55.816;37.036;2022-11-03T08:14:02;2.00;;;0.80;;
72797;SDS011;61084;55.816;37.036;2022-11-03T08:16:28;1.90;;;0.80;;
72797;SDS011;61084;55.816;37.036;2022-11-03T08:18:54;1.20;;;0.70;;
72797;SDS011;61084;55.816;37.036;2022-11-03T08:21:20;0.65;;;0.65;;
72797;SDS011;61084;55.816;37.036;2022-11-03T08:23:45;1.90;;;0.80;;
72797;SDS011;61084;55.816;37.036;2022-11-03T08:26:11;1.27;;;0.80;;
72797;SDS011;61084;55.816;37.036;2022-11-03T08:28:37;1.20;;;0.82;;
72797;SDS011;61084;55.816;37.036;2022-11-03T08:31:03;1.30;;;0.70;;
72797;SDS011;61084;55.816;37.036;2022-11-03T08:33:30;1.38;;;0.98;;
72797;SDS011;61084;55.816;37.036;2022-11-03T08:35:57;6.55;;;0.90;;
72797;SDS011;61084;55.816;37.036;2022-11-03T08:38:24;1.10;;;0.80;;
72797;SDS011;61084;55.816;37.036;2022-11-03T08:40:49;0.90;;;0.70;;
72797;SDS011;61084;55.816;37.036;2022-11-03T08:43:15;1.02;;;0.80;;
72797;SDS011;61084;55.816;37.036;2022-11-03T08:45:41;1.27;;;0.70;;
72797;SDS011;61084;55.816;37.036;2022-11-03T08:48:07;1.80;;;0.80;;
72797;SDS011;61084;55.816;37.036;2022-11-03T08:50:33;2.55;;;1.10;;
72797;SDS011;61084;55.816;37.036;2022-11-03T08:52:59;1.60;;;0.95;;
72797;SDS011;61084;55.816;37.036;2022-11-03T08:55:25;1.55;;;0.98;;
72797;SDS011;61084;55.816;37.036;2022-11-03T08:57:50;0.90;;;0.80;;
72797;SDS011;61084;55.816;37.036;2022-11-03T09:00:16;2.10;;;1.00;;
72797;SDS011;61084;55.816;37.036;2022-11-03T09:02:43;1.30;;;0.88;;
72797;SDS011;61084;55.816;37.036;2022-11-03T09:05:09;0.77;;;0.63;;
72797;SDS011;61084;55.816;37.036;2022-11-03T09:10:07;1.33;;;0.90;;
72797;SDS011;61084;55.816;37.036;2022-11-03T09:12:35;2.33;;;0.90;;
72797;SDS011;61084;55.816;37.036;2022-11-03T09:15:02;1.50;;;1.00;;
72797;SDS011;61084;55.816;37.036;2022-11-03T09:17:29;1.42;;;1.08;;
72797;SDS011;61084;55.816;37.036;2022-11-03T09:19:55;2.38;;;1.23;;
72797;SDS011;61084;55.816;37.036;2022-11-03T09:22:21;1.33;;;1.00;;
72797;SDS011;61084;55.816;37.036;2022-11-03T09:24:47;2.05;;;1.13;;
72797;SDS011;61084;55.816;37.036;2022-11-03T09:27:13;1.77;;;1.02;;
72797;SDS011;61084;55.816;37.036;2022-11-03T09:29:39;2.83;;;1.30;;
72797;SDS011;61084;55.816;37.036;2022-11-03T09:32:04;2.30;;;1.20;;
72797;SDS011;61084;55.816;37.036;2022-11-03T09:34:30;1.60;;;1.00;;
72797;SDS011;61084;55.816;37.036;2022-11-03T09:36:57;1.70;;;1.02;;
72797;SDS011;61084;55.816;37.036;2022-11-03T09:39:22;2.03;;;1.15;;
72797;SDS011;61084;55.816;37.036;2022-11-03T09:41:49;1.73;;;1.08;;
72797;SDS011;61084;55.816;37.036;2022-11-03T09:44:15;2.13;;;0.98;;
72797;SDS011;61084;55.816;37.036;2022-11-03T09:46:41;1.92;;;1.10;;
72797;SDS011;61084;55.816;37.036;2022-11-03T09:49:10;3.30;;;1.30;;
72797;SDS011;61084;55.816;37.036;2022-11-03T09:51:39;2.25;;;1.33;;
72797;SDS011;61084;55.816;37.036;2022-11-03T09:54:05;1.80;;;1.30;;
72797;SDS011;61084;55.816;37.036;2022-11-03T09:56:33;1.55;;;1.10;;
72797;SDS011;61084;55.816;37.036;2022-11-03T09:59:00;2.45;;;1.30;;
72797;SDS011;61084;55.816;37.036;2022-11-03T10:01:26;3.95;;;1.80;;
72797;SDS011;61084;55.816;37.036;2022-11-03T10:03:54;1.50;;;1.13;;
72797;SDS011;61084;55.816;37.036;2022-11-03T10:06:23;2.85;;;1.60;;
72797;SDS011;61084;55.816;37.036;2022-11-03T10:08:49;4.20;;;2.47;;
72797;SDS011;61084;55.816;37.036;2022-11-03T10:11:15;4.18;;;2.45;;
72797;SDS011;61084;55.816;37.036;2022-11-03T10:13:42;3.55;;;1.92;;
72797;SDS011;61084;55.816;37.036;2022-11-03T10:16:14;2.58;;;1.60;;
72797;SDS011;61084;55.816;37.036;2022-11-03T10:18:41;2.88;;;1.60;;
72797;SDS011;61084;55.816;37.036;2022-11-03T10:21:13;2.72;;;1.63;;
72797;SDS011;61084;55.816;37.036;2022-11-03T10:23:42;2.97;;;1.80;;
72797;SDS011;61084;55.816;37.036;2022-11-03T10:26:09;1.75;;;1.33;;
72797;SDS011;61084;55.816;37.036;2022-11-03T10:28:37;3.30;;;1.50;;
72797;SDS011;61084;55.816;37.036;2022-11-03T10:31:20;2.10;;;1.10;;
72797;SDS011;61084;55.816;37.036;2022-11-03T10:33:50;4.47;;;1.25;;
72797;SDS011;61084;55.816;37.036;2022-11-03T10:38:43;2.00;;;1.10;;
72797;SDS011;61084;55.816;37.036;2022-11-03T10:41:13;2.70;;;1.58;;
72797;SDS011;61084;55.816;37.036;2022-11-03T10:43:41;1.83;;;1.25;;
72797;SDS011;61084;55.816;37.036;2022-11-03T10:46:10;3.05;;;1.73;;
72797;SDS011;61084;55.816;37.036;2022-11-03T10:48:39;2.80;;;1.48;;
72797;SDS011;61084;55.816;37.036;2022-11-03T10:51:04;2.13;;;1.30;;
72797;SDS011;61084;55.816;37.036;2022-11-03T10:53:35;2.75;;;1.38;;
72797;SDS011;61084;55.816;37.036;2022-11-03T10:56:02;2.55;;;1.48;;
72797;SDS011;61084;55.816;37.036;2022-11-03T10:58:28;2.58;;;1.60;;
72797;SDS011;61084;55.816;37.036;2022-11-03T11:00:55;3.05;;;1.50;;
72797;SDS011;61084;55.816;37.036;2022-11-03T11:03:21;3.58;;;1.85;;
72797;SDS011;61084;55.816;37.036;2022-11-03T11:05:46;3.88;;;1.75;;
72797;SDS011;61084;55.816;37.036;2022-11-03T11:08:13;3.58;;;1.52;;
72797;SDS011;61084;55.816;37.036;2022-11-03T11:10:46;3.00;;;1.77;;
72797;SDS011;61084;55.816;37.036;2022-11-03T11:15:57;2.40;;;1.52;;
72797;SDS011;61084;55.816;37.036;2022-11-03T11:28:38;3.92;;;2.08;;
72797;SDS011;61084;55.816;37.036;2022-11-03T11:36:40;3.90;;;1.88;;
72797;SDS011;61084;55.816;37.036;2022-11-03T11:52:36;2.60;;;1.65;;
72797;SDS011;61084;55.816;37.036;2022-11-03T11:55:28;5.80;;;2.17;;
72797;SDS011;61084;55.816;37.036;2022-11-03T12:00:36;3.75;;;2.20;;
72797;SDS011;61084;55.816;37.036;2022-11-03T12:03:02;2.63;;;1.70;;
72797;SDS011;61084;55.816;37.036;2022-11-03T12:05:31;3.38;;;1.83;;
72797;SDS011;61084;55.816;37.036;2022-11-03T12:07:58;2.67;;;1.60;;
72797;SDS011;61084;55.816;37.036;2022-11-03T12:10:26;4.80;;;2.03;;
72797;SDS011;61084;55.816;37.036;2022-11-03T12:12:54;4.05;;;2.50;;
72797;SDS011;61084;55.816;37.036;2022-11-03T12:18:30;5.20;;;1.88;;
72797;SDS011;61084;55.816;37.036;2022-11-03T12:20:59;3.85;;;1.90;;
72797;SDS011;61084;55.816;37.036;2022-11-03T12:26:03;2.75;;;1.92;;
72797;SDS011;61084;55.816;37.036;2022-11-03T12:28:30;3.55;;;2.03;;
72797;SDS011;61084;55.816;37.036;2022-11-03T12:30:57;3.80;;;2.20;;
72797;SDS011;61084;55.816;37.036;2022-11-03T12:33:25;3.30;;;2.28;;
72797;SDS011;61084;55.816;37.036;2022-11-03T12:35:52;3.70;;;2.42;;
72797;SDS011;61084;55.816;37.036;2022-11-03T12:38:18;4.60;;;2.00;;
72797;SDS011;61084;55.816;37.036;2022-11-03T12:40:44;5.60;;;2.38;;
72797;SDS011;61084;55.816;37.036;2022-11-03T12:43:10;5.70;;;2.40;;
72797;SDS011;61084;55.816;37.036;2022-11-03T12:45:35;3.28;;;1.90;;
72797;SDS011;61084;55.816;37.036;2022-11-03T12:48:01;2.97;;;1.90;;
72797;SDS011;61084;55.816;37.036;2022-11-03T12:50:27;3.15;;;1.98;;
72797;SDS011;61084;55.816;37.036;2022-11-03T12:52:53;3.13;;;1.67;;
72797;SDS011;61084;55.816;37.036;2022-11-03T12:55:18;3.58;;;1.80;;
72797;SDS011;61084;55.816;37.036;2022-11-03T12:57:44;4.00;;;2.10;;
72797;SDS011;61084;55.816;37.036;2022-11-03T13:00:11;4.45;;;2.13;;
72797;SDS011;61084;55.816;37.036;2022-11-03T13:02:37;3.00;;;2.00;;
72797;SDS011;61084;55.816;37.036;2022-11-03T13:05:04;3.20;;;2.25;;
72797;SDS011;61084;55.816;37.036;2022-11-03T13:07:30;3.35;;;2.00;;
72797;SDS011;61084;55.816;37.036;2022-11-03T13:09:56;3.33;;;2.20;;
72797;SDS011;61084;55.816;37.036;2022-11-03T13:12:22;4.32;;;2.28;;
72797;SDS011;61084;55.816;37.036;2022-11-03T13:15:00;5.63;;;2.78;;
72797;SDS011;61084;55.816;37.036;2022-11-03T13:17:29;5.00;;;3.00;;
72797;SDS011;61084;55.816;37.036;2022-11-03T13:19:54;6.00;;;3.05;;
72797;SDS011;61084;55.816;37.036;2022-11-03T13:22:20;4.32;;;2.58;;
72797;SDS011;61084;55.816;37.036;2022-11-03T13:24:46;3.72;;;2.40;;
72797;SDS011;61084;55.816;37.036;2022-11-03T13:27:12;4.60;;;2.35;;
72797;SDS011;61084;55.816;37.036;2022-11-03T13:29:38;3.90;;;2.45;;
72797;SDS011;61084;55.816;37.036;2022-11-03T13:32:04;4.07;;;2.63;;
72797;SDS011;61084;55.816;37.036;2022-11-03T13:34:30;4.43;;;2.40;;
72797;SDS011;61084;55.816;37.036;2022-11-03T13:36:56;4.22;;;2.47;;
72797;SDS011;61084;55.816;37.036;2022-11-03T13:39:23;3.97;;;2.53;;
72797;SDS011;61084;55.816;37.036;2022-11-03T13:41:48;6.18;;;2.67;;
72797;SDS011;61084;55.816;37.036;2022-11-03T13:44:14;6.93;;;2.70;;
72797;SDS011;61084;55.816;37.036;2022-11-03T13:46:40;4.43;;;2.90;;
72797;SDS011;61084;55.816;37.036;2022-11-03T13:49:06;4.30;;;3.22;;
72797;SDS011;61084;55.816;37.036;2022-11-03T13:51:32;5.65;;;3.38;;
72797;SDS011;61084;55.816;37.036;2022-11-03T13:53:58;6.03;;;3.13;;
72797;SDS011;61084;55.816;37.036;2022-11-03T13:56:23;6.40;;;3.17;;
72797;SDS011;61084;55.816;37.036;2022-11-03T13:58:49;6.28;;;3.28;;
72797;SDS011;61084;55.816;37.036;2022-11-03T14:01:15;5.20;;;3.17;;
72797;SDS011;61084;55.816;37.036;2022-11-03T14:03:41;6.45;;;3.13;;
72797;SDS011;61084;55.816;37.036;2022-11-03T14:06:07;5.78;;;3.40;;
72797;SDS011;61084;55.816;37.036;2022-11-03T14:08:33;5.32;;;3.65;;
72797;SDS011;61084;55.816;37.036;2022-11-03T14:10:59;5.18;;;3.47;;
72797;SDS011;61084;55.816;37.036;2022-11-03T14:14:03;4.80;;;3.05;;
72797;SDS011;61084;55.816;37.036;2022-11-03T14:16:28;6.00;;;3.40;;
72797;SDS011;61084;55.816;37.036;2022-11-03T14:18:54;7.47;;;3.53;;
72797;SDS011;61084;55.816;37.036;2022-11-03T14:21:20;7.22;;;3.75;;
72797;SDS011;61084;55.816;37.036;2022-11-03T14:23:45;6.65;;;3.58;;
72797;SDS011;61084;55.816;37.036;2022-11-03T14:26:11;7.10;;;3.80;;
72797;SDS011;61084;55.816;37.036;2022-11-03T14:28:37;7.45;;;3.83;;
72797;SDS011;61084;55.816;37.036;2022-11-03T14:31:03;8.02;;;3.83;;
72797;SDS011;61084;55.816;37.036;2022-11-03T14:33:30;7.25;;;3.80;;
72797;SDS011;61084;55.816;37.036;2022-11-03T14:35:56;7.45;;;3.58;;
72797;SDS011;61084;55.816;37.036;2022-11-03T14:38:23;6.80;;;4.05;;
72797;SDS011;61084;55.816;37.036;2022-11-03T14:40:49;5.65;;;3.55;;
72797;SDS011;61084;55.816;37.036;2022-11-03T14:43:33;9.65;;;4.10;;
72797;SDS011;61084;55.816;37.036;2022-11-03T14:45:59;7.82;;;3.92;;
72797;SDS011;61084;55.816;37.036;2022-11-03T14:48:25;8.77;;;4.63;;
72797;SDS011;61084;55.816;37.036;2022-11-03T14:50:51;7.03;;;4.30;;
72797;SDS011;61084;55.816;37.036;2022-11-03T14:53:17;7.40;;;4.18;;
72797;SDS011;61084;55.816;37.036;2022-11-03T14:55:43;12.50;;;4.53;;
72797;SDS011;61084;55.816;37.036;2022-11-03T14:58:09;7.93;;;4.25;;
72797;SDS011;61084;55.816;37.036;2022-11-03T15:00:35;9.27;;;4.30;;
72797;SDS011;61084;55.816;37.036;2022-11-03T15:03:01;10.13;;;4.55;;
72797;SDS011;61084;55.816;37.036;2022-11-03T15:05:26;9.38;;;4.18;;
72797;SDS011;61084;55.816;37.036;2022-11-03T15:08:12;9.40;;;4.97;;
72797;SDS011;61084;55.816;37.036;2022-11-03T15:10:39;9.02;;;4.38;;
72797;SDS011;61084;55.816;37.036;2022-11-03T15:13:05;7.82;;;4.72;;
72797;SDS011;61084;55.816;37.036;2022-11-03T15:15:30;8.70;;;4.18;;
72797;SDS011;61084;55.816;37.036;2022-11-03T15:17:56;8.63;;;4.60;;
72797;SDS011;61084;55.816;37.036;2022-11-03T15:20:22;11.38;;;5.05;;
72797;SDS011;61084;55.816;37.036;2022-11-03T15:22:48;10.95;;;5.18;;
72797;SDS011;61084;55.816;37.036;2022-11-03T15:25:14;13.70;;;5.95;;
72797;SDS011;61084;55.816;37.036;2022-11-03T15:27:39;10.73;;;5.68;;
72797;SDS011;61084;55.816;37.036;2022-11-03T15:30:05;10.73;;;5.13;;
72797;SDS011;61084;55.816;37.036;2022-11-03T15:32:32;11.15;;;4.82;;
72797;SDS011;61084;55.816;37.036;2022-11-03T15:34:58;10.18;;;5.22;;
72797;SDS011;61084;55.816;37.036;2022-11-03T15:37:24;11.75;;;4.85;;
72797;SDS011;61084;55.816;37.036;2022-11-03T15:39:50;15.63;;;6.13;;
72797;SDS011;61084;55.816;37.036;2022-11-03T15:42:16;9.93;;;4.97;;
72797;SDS011;61084;55.816;37.036;2022-11-03T15:44:43;14.40;;;5.80;;
72797;SDS011;61084;55.816;37.036;2022-11-03T15:47:08;9.82;;;4.97;;
72797;SDS011;61084;55.816;37.036;2022-11-03T15:49:34;11.75;;;5.30;;
72797;SDS011;61084;55.816;37.036;2022-11-03T15:52:00;10.68;;;5.47;;
72797;SDS011;61084;55.816;37.036;2022-11-03T15:54:26;10.80;;;5.03;;
72797;SDS011;61084;55.816;37.036;2022-11-03T15:56:52;13.40;;;5.60;;
72797;SDS011;61084;55.816;37.036;2022-11-03T15:59:18;12.25;;;6.00;;
72797;SDS011;61084;55.816;37.036;2022-11-03T16:01:44;9.80;;;5.32;;
72797;SDS011;61084;55.816;37.036;2022-11-03T16:04:09;13.70;;;5.60;;
72797;SDS011;61084;55.816;37.036;2022-11-03T16:06:35;11.00;;;5.13;;
72797;SDS011;61084;55.816;37.036;2022-11-03T16:09:01;11.80;;;5.47;;
72797;SDS011;61084;55.816;37.036;2022-11-03T16:11:28;13.85;;;6.28;;
72797;SDS011;61084;55.816;37.036;2022-11-03T16:13:54;11.30;;;5.93;;
72797;SDS011;61084;55.816;37.036;2022-11-03T16:16:19;11.85;;;5.65;;
72797;SDS011;61084;55.816;37.036;2022-11-03T16:18:45;14.10;;;5.88;;
72797;SDS011;61084;55.816;37.036;2022-11-03T16:21:12;14.27;;;6.35;;
72797;SDS011;61084;55.816;37.036;2022-11-03T16:23:38;13.55;;;5.78;;
72797;SDS011;61084;55.816;37.036;2022-11-03T16:26:04;12.55;;;5.45;;